createdAt,value
2022-10-02T00:01:58.175Z,97742.63
2022-10-02T00:04:31.122Z,97740.75
2022-10-02T00:07:02.614Z,97752.53
2022-10-02T00:09:35.415Z,97758.75
2022-10-02T00:12:05.774Z,97762.28
2022-10-02T00:14:38.671Z,97768.50
2022-10-02T00:17:07.286Z,97773.03
2022-10-02T00:19:35.793Z,97773.03
2022-10-02T00:22:34.323Z,97782.13
2022-10-02T00:25:08.604Z,97789.16
2022-10-02T00:28:16.702Z,97791.84
2022-10-02T00:30:56.662Z,97790.00
2022-10-02T00:33:28.427Z,97787.31
2022-10-02T00:36:07.935Z,97785.63
2022-10-02T00:38:46.555Z,97785.63
2022-10-02T00:42:10.152Z,97794.75
2022-10-02T00:44:51.905Z,97807.16
2022-10-02T00:47:26.536Z,97807.16
2022-10-02T00:50:08.329Z,97809.00
2022-10-02T00:52:56.519Z,97816.03
2022-10-02T00:55:38.673Z,97815.44
2022-10-02T00:58:32.067Z,97809.00
2022-10-02T01:01:04.507Z,97823.50
2022-10-02T01:03:36.194Z,97813.56
2022-10-02T01:06:04.849Z,97815.44
2022-10-02T01:08:34.290Z,97820.81
2022-10-02T01:11:02.927Z,97820.81
2022-10-02T01:13:33.171Z,97822.63
2022-10-02T01:16:02.112Z,97831.56
2022-10-02T01:18:31.046Z,97834.25
2022-10-02T01:21:02.562Z,97829.88
2022-10-02T01:23:35.586Z,97836.94
2022-10-02T01:26:05.724Z,97840.63
2022-10-02T01:28:34.194Z,97843.31
2022-10-02T01:31:07.646Z,97829.88
2022-10-02T01:33:36.363Z,97835.25
2022-10-02T01:36:05.355Z,97841.47
2022-10-02T01:38:33.683Z,97844.16
2022-10-02T01:41:02.189Z,97845.00
2022-10-02T01:43:33.165Z,97850.56
2022-10-02T01:46:36.581Z,97860.28
2022-10-02T01:49:18.450Z,97853.25
2022-10-02T01:52:14.368Z,97859.44
2022-10-02T01:54:53.086Z,97855.94
2022-10-02T01:57:30.475Z,97867.50
2022-10-02T02:00:07.844Z,97862.13
2022-10-02T02:02:43.401Z,97870.19
2022-10-02T02:05:15.271Z,97871.88
2022-10-02T02:07:47.856Z,97864.81
2022-10-02T02:10:22.699Z,97884.47
2022-10-02T02:12:55.165Z,97877.44
2022-10-02T02:15:27.180Z,97878.47
2022-10-02T02:17:58.791Z,97890.06
2022-10-02T02:20:30.115Z,97882.00
2022-10-02T02:23:07.840Z,97886.34
2022-10-02T02:25:38.991Z,97890.88
2022-10-02T02:28:09.947Z,97890.88
2022-10-02T02:30:41.063Z,97899.13
2022-10-02T02:33:12.092Z,97903.50
2022-10-02T02:35:42.777Z,97911.56
2022-10-02T02:38:13.674Z,97899.13
2022-10-02T02:40:43.801Z,97901.81
2022-10-02T02:43:14.665Z,97904.50
2022-10-02T02:45:48.232Z,97906.19
2022-10-02T02:48:20.871Z,97908.06
2022-10-02T02:50:51.531Z,97901.81
2022-10-02T02:53:24.156Z,97909.06
2022-10-02T02:55:55.861Z,97910.91
2022-10-02T02:58:26.538Z,97914.44
2022-10-02T03:00:56.408Z,97919.00
2022-10-02T03:03:24.923Z,97918.16
2022-10-02T03:05:58.561Z,97924.38
2022-10-02T03:08:28.526Z,97922.50
2022-10-02T03:11:06.453Z,97925.19
2022-10-02T03:13:46.990Z,97928.91
2022-10-02T03:16:29.744Z,97922.72
2022-10-02T03:19:09.240Z,97928.09
2022-10-02T03:21:42.446Z,97931.59
2022-10-02T03:24:15.037Z,97930.78
2022-10-02T03:26:46.154Z,97934.28
2022-10-02T03:29:18.969Z,97938.00
2022-10-02T03:31:48.937Z,97934.47
2022-10-02T03:34:17.424Z,97938.19
2022-10-02T03:36:45.983Z,97933.47
2022-10-02T03:39:24.667Z,97945.22
2022-10-02T03:41:54.545Z,97947.09
2022-10-02T03:44:23.037Z,97948.75
2022-10-02T03:46:52.928Z,97946.25
2022-10-02T03:49:21.388Z,97944.41
2022-10-02T03:51:49.737Z,97951.63
2022-10-02T03:54:19.607Z,97954.31
2022-10-02T03:56:55.869Z,97960.72
2022-10-02T03:59:36.547Z,97957.00
2022-10-02T04:02:11.188Z,97964.25
2022-10-02T04:04:46.005Z,97971.47
2022-10-02T04:07:18.507Z,97973.13
2022-10-02T04:09:51.671Z,97976.84
2022-10-02T04:12:22.190Z,97974.16
2022-10-02T04:14:53.678Z,97976.84
2022-10-02T04:17:25.625Z,97985.94
2022-10-02T04:19:57.065Z,97987.63
2022-10-02T04:22:31.824Z,97992.13
2022-10-02T04:25:03.352Z,97986.97
2022-10-02T04:27:36.505Z,97990.47
2022-10-02T04:30:07.990Z,97993.34
2022-10-02T04:32:37.976Z,97997.72
2022-10-02T04:35:15.533Z,98008.47
2022-10-02T04:38:02.466Z,98013.19
2022-10-02T04:40:55.048Z,98017.53
2022-10-02T04:43:36.727Z,98015.72
2022-10-02T04:46:18.548Z,98022.09
2022-10-02T04:49:12.799Z,98014.00
2022-10-02T04:51:55.993Z,98028.28
2022-10-02T04:54:42.604Z,98036.34
2022-10-02T04:57:30.013Z,98030.97
2022-10-02T05:00:06.232Z,98038.22
2022-10-02T05:02:46.753Z,98038.22
2022-10-02T05:05:30.813Z,98045.44
2022-10-02T05:08:25.654Z,98045.28
2022-10-02T05:11:29.152Z,98048.97
2022-10-02T05:14:25.844Z,98054.16
2022-10-02T05:17:08.745Z,98062.41
2022-10-02T05:19:48.783Z,98065.91
2022-10-02T05:22:40.961Z,98067.78
2022-10-02T05:25:21.476Z,98066.13
2022-10-02T05:28:17.668Z,98066.97
2022-10-02T05:30:49.387Z,98064.44
2022-10-02T05:33:48.097Z,98069.81
2022-10-02T05:36:44.576Z,98076.88
2022-10-02T05:39:16.796Z,98077.72
2022-10-02T05:41:50.819Z,98079.56
2022-10-02T05:44:21.303Z,98085.13
2022-10-02T05:46:53.735Z,98088.47
2022-10-02T05:49:24.509Z,98087.81
2022-10-02T05:51:58.335Z,98090.50
2022-10-02T05:54:39.708Z,98088.47
2022-10-02T05:57:14.646Z,98087.44
2022-10-02T05:59:46.190Z,98097.34
2022-10-02T06:02:21.896Z,98095.50
2022-10-02T06:04:55.920Z,98101.53
2022-10-02T06:07:25.478Z,98096.63
2022-10-02T06:09:58.653Z,98108.41
2022-10-02T06:12:30.735Z,98101.16
2022-10-02T06:15:02.624Z,98108.41
2022-10-02T06:17:32.717Z,98107.56
2022-10-02T06:20:04.297Z,98111.75
2022-10-02T06:22:35.754Z,98115.25
2022-10-02T06:25:10.717Z,98118.31
2022-10-02T06:27:43.265Z,98115.81
2022-10-02T06:30:13.733Z,98118.78
2022-10-02T06:32:46.623Z,98113.03
2022-10-02T06:35:16.591Z,98124.63
2022-10-02T06:37:56.731Z,98131.03
2022-10-02T06:40:51.359Z,98138.72
2022-10-02T06:43:40.546Z,98122.28
2022-10-02T06:46:19.288Z,98149.47
2022-10-02T06:48:53.087Z,98135.41
2022-10-02T06:51:24.880Z,98147.44
2022-10-02T06:54:08.570Z,98139.56
2022-10-02T06:56:49.046Z,98143.25
2022-10-02T06:59:30.185Z,98149.47
2022-10-02T07:02:03.503Z,98148.63
2022-10-02T07:04:48.858Z,98150.34
2022-10-02T07:07:26.782Z,98151.16
2022-10-02T07:10:05.225Z,98155.03
2022-10-02T07:12:54.101Z,98152.34
2022-10-02T07:15:53.701Z,98158.56
2022-10-02T07:18:28.722Z,98158.56
2022-10-02T07:21:02.174Z,98158.19
2022-10-02T07:23:48.834Z,98158.19
2022-10-02T07:26:40.427Z,98158.19
2022-10-02T07:29:27.098Z,98164.03
2022-10-02T07:32:18.869Z,98173.97
2022-10-02T07:34:53.804Z,98176.03
2022-10-02T07:37:26.846Z,98172.66
2022-10-02T07:40:18.154Z,98184.09
2022-10-02T07:43:21.786Z,98180.75
2022-10-02T07:45:53.834Z,98184.44
2022-10-02T07:48:38.089Z,98184.44
2022-10-02T07:51:46.176Z,98177.38
2022-10-02T07:54:41.025Z,98175.53
2022-10-02T07:57:31.529Z,98175.53
2022-10-02T08:00:05.742Z,98187.13
2022-10-02T08:02:39.668Z,98175.00
2022-10-02T08:05:18.189Z,98186.78
2022-10-02T08:07:50.962Z,98184.09
2022-10-02T08:10:23.066Z,98174.34
2022-10-02T08:12:56.253Z,98173.34
2022-10-02T08:15:24.759Z,98169.78
2022-10-02T08:17:58.746Z,98159.88
2022-10-02T08:20:37.772Z,98148.09
2022-10-02T08:23:08.367Z,98163.19
2022-10-02T08:25:41.219Z,98166.91
2022-10-02T08:28:13.155Z,98155.13
2022-10-02T08:30:41.830Z,98147.25
2022-10-02T08:33:17.679Z,98149.13
2022-10-02T08:36:05.773Z,98145.41
2022-10-02T08:38:41.574Z,98150.97
2022-10-02T08:41:34.214Z,98172.47
2022-10-02T08:45:15.410Z,98161.91
2022-10-02T08:48:39.689Z,98154.84
2022-10-02T08:51:51.425Z,98143.38
2022-10-02T08:55:07.702Z,98151.81
2022-10-02T08:58:13.589Z,98158.19
2022-10-02T09:00:51.121Z,98146.22
2022-10-02T09:04:28.337Z,98137.13
2022-10-02T09:07:57.022Z,98138.00
2022-10-02T09:10:55.684Z,98130.09
2022-10-02T09:14:05.871Z,98130.94
2022-10-02T09:16:44.679Z,98123.69
2022-10-02T09:19:35.397Z,98125.56
2022-10-02T09:22:08.781Z,98121.84
2022-10-02T09:25:02.274Z,98118.97
2022-10-02T09:28:04.909Z,98122.31
2022-10-02T09:31:03.752Z,98108.03
2022-10-02T09:34:15.883Z,98103.66
2022-10-02T09:37:16.286Z,98112.59
2022-10-02T09:40:02.897Z,98112.75
2022-10-02T09:43:17.542Z,98109.25
2022-10-02T09:46:35.318Z,98114.63
2022-10-02T09:49:50.687Z,98113.78
2022-10-02T09:53:19.741Z,98104.88
2022-10-02T09:56:24.038Z,98095.13
2022-10-02T09:59:58.330Z,98102.38
2022-10-02T10:03:08.243Z,98098.03
2022-10-02T10:06:05.124Z,98095.34
2022-10-02T10:09:03.652Z,98099.84
2022-10-02T10:12:30.054Z,98094.31
2022-10-02T10:15:45.930Z,98094.75
2022-10-02T10:19:09.093Z,98103.22
2022-10-02T10:22:27.829Z,98085.22
2022-10-02T10:25:28.038Z,98088.09
2022-10-02T10:28:35.124Z,98091.63
2022-10-02T10:31:59.313Z,98081.53
2022-10-02T10:35:18.939Z,98071.75
2022-10-02T10:38:13.209Z,98083.34
2022-10-02T10:40:56.587Z,98078.84
2022-10-02T10:43:50.271Z,98075.09
2022-10-02T10:46:43.028Z,98074.06
2022-10-02T10:49:55.219Z,98069.72
2022-10-02T10:52:30.344Z,98061.66
2022-10-02T10:55:12.423Z,98059.63
2022-10-02T10:57:58.661Z,98053.88
2022-10-02T11:00:27.669Z,98058.22
2022-10-02T11:03:41.341Z,98079.28
2022-10-02T11:06:26.391Z,98074.06
2022-10-02T11:09:34.279Z,98073.44
2022-10-02T11:12:41.305Z,98075.50
2022-10-02T11:15:34.713Z,98070.09
2022-10-02T11:18:38.867Z,98074.66
2022-10-02T11:21:35.366Z,98074.66
2022-10-02T11:24:27.380Z,98077.16
2022-10-02T11:27:05.992Z,98063.69
2022-10-02T11:30:06.419Z,98062.69
2022-10-02T11:33:11.916Z,98056.94
2022-10-02T11:35:53.342Z,98060.00
2022-10-02T11:38:57.103Z,98049.03
2022-10-02T11:41:45.420Z,98056.28
2022-10-02T11:44:21.143Z,98062.50
2022-10-02T11:47:23.414Z,98062.50
2022-10-02T11:50:25.143Z,98048.22
2022-10-02T11:53:17.197Z,98048.22
2022-10-02T11:55:57.205Z,98043.50
2022-10-02T11:58:42.011Z,98040.44
2022-10-02T12:01:17.687Z,98038.28
2022-10-02T12:04:27.925Z,98034.94
2022-10-02T12:07:26.551Z,98025.03
2022-10-02T12:10:06.601Z,98033.13
2022-10-02T12:12:45.585Z,98018.81
2022-10-02T12:15:24.013Z,98028.75
2022-10-02T12:18:21.862Z,98031.44
2022-10-02T12:21:24.312Z,98022.34
2022-10-02T12:24:15.756Z,98014.09
2022-10-02T12:27:03.932Z,98015.94
2022-10-02T12:29:41.722Z,98012.44
2022-10-02T12:32:20.513Z,98003.53
2022-10-02T12:34:57.600Z,98003.53
2022-10-02T12:37:31.705Z,98001.84
2022-10-02T12:40:08.344Z,97978.69
2022-10-02T12:43:00.330Z,97992.78
2022-10-02T12:45:51.582Z,97985.72
2022-10-02T12:48:32.531Z,97987.41
2022-10-02T12:51:36.019Z,97992.78
2022-10-02T12:54:40.289Z,97987.41
2022-10-02T12:57:55.974Z,97986.19
2022-10-02T13:00:26.133Z,97984.50
2022-10-02T13:03:36.124Z,97977.47
2022-10-02T13:07:13.767Z,97975.59
2022-10-02T13:09:48.958Z,97966.16
2022-10-02T13:12:37.713Z,97965.13
2022-10-02T13:15:37.428Z,97956.59
2022-10-02T13:18:38.869Z,97950.19
2022-10-02T13:21:14.278Z,97960.94
2022-10-02T13:23:47.831Z,97961.59
2022-10-02T13:26:24.296Z,97940.53
2022-10-02T13:29:25.591Z,97941.94
2022-10-02T13:32:10.761Z,97947.31
2022-10-02T13:35:01.418Z,97948.97
2022-10-02T13:37:38.746Z,97956.78
2022-10-02T13:40:21.773Z,97942.31
2022-10-02T13:43:10.937Z,97935.91
2022-10-02T13:45:46.134Z,97936.91
2022-10-02T13:48:19.714Z,97943.16
2022-10-02T13:50:53.786Z,97936.91
2022-10-02T13:54:03.079Z,97932.59
2022-10-02T13:56:43.442Z,97940.66
2022-10-02T13:59:46.972Z,97938.13
2022-10-02T14:02:30.785Z,97934.06
2022-10-02T14:05:04.492Z,97936.75
2022-10-02T14:07:52.372Z,97933.22
2022-10-02T14:10:34.035Z,97926.00
2022-10-02T14:13:18.948Z,97927.84
2022-10-02T14:16:07.723Z,97917.28
2022-10-02T14:19:03.175Z,97915.41
2022-10-02T14:21:34.924Z,97905.50
2022-10-02T14:24:50.216Z,97906.72
2022-10-02T14:27:54.706Z,97907.34
2022-10-02T14:30:24.031Z,97910.03
2022-10-02T14:33:00.032Z,97913.59
2022-10-02T14:35:35.825Z,97924.34
2022-10-02T14:38:51.214Z,97926.16
2022-10-02T14:41:38.344Z,97917.91
2022-10-02T14:44:52.926Z,97921.66
2022-10-02T14:47:35.203Z,97932.19
2022-10-02T14:50:25.665Z,97928.50
2022-10-02T14:53:35.095Z,97919.56
2022-10-02T14:56:31.789Z,97924.97
2022-10-02T14:59:12.559Z,97925.81
2022-10-02T15:01:44.791Z,97923.13
2022-10-02T15:04:30.271Z,97936.56
2022-10-02T15:07:04.879Z,97921.44
2022-10-02T15:09:43.909Z,97940.25
2022-10-02T15:12:16.486Z,97941.31
2022-10-02T15:15:03.785Z,97939.63
2022-10-02T15:17:57.044Z,97934.22
2022-10-02T15:20:32.212Z,97933.41
2022-10-02T15:23:01.856Z,97949.38
2022-10-02T15:25:51.047Z,97954.91
2022-10-02T15:28:36.383Z,97963.81
2022-10-02T15:31:12.190Z,98003.53
2022-10-02T15:33:42.283Z,97991.47
2022-10-02T15:37:00.081Z,97967.91
2022-10-02T15:40:17.019Z,97967.91
2022-10-02T15:42:56.284Z,97951.41
2022-10-02T15:45:50.212Z,97946.03
2022-10-02T15:48:50.288Z,97932.41
2022-10-02T15:51:33.727Z,97927.03
2022-10-02T15:54:12.283Z,97932.19
2022-10-02T15:57:08.737Z,97924.13
2022-10-02T15:59:54.577Z,97936.56
2022-10-02T16:02:41.518Z,97928.50
2022-10-02T16:05:20.782Z,97936.56
2022-10-02T16:08:41.451Z,97939.25
2022-10-02T16:11:58.941Z,97934.72
2022-10-02T16:14:37.786Z,97938.22
2022-10-02T16:17:28.964Z,97931.81
2022-10-02T16:20:47.904Z,97931.81
2022-10-02T16:23:29.865Z,97934.19
2022-10-02T16:26:16.818Z,97942.56
2022-10-02T16:28:53.129Z,97943.84
2022-10-02T16:31:39.995Z,97943.06
2022-10-02T16:34:23.515Z,97935.66
2022-10-02T16:36:53.445Z,97941.84
2022-10-02T16:39:39.971Z,97933.78
2022-10-02T16:42:22.352Z,97932.97
2022-10-02T16:45:33.180Z,97942.69
2022-10-02T16:48:07.884Z,97939.38
2022-10-02T16:51:04.860Z,97948.44
2022-10-02T16:53:36.983Z,97942.41
2022-10-02T16:56:12.368Z,97947.78
2022-10-02T16:58:46.231Z,97938.72
2022-10-02T17:01:24.727Z,97943.06
2022-10-02T17:04:19.728Z,97927.75
2022-10-02T17:06:51.713Z,97931.50
2022-10-02T17:09:22.444Z,97923.25
2022-10-02T17:11:53.875Z,97927.75
2022-10-02T17:14:26.150Z,97918.88
2022-10-02T17:16:56.570Z,97917.00
2022-10-02T17:19:28.898Z,97908.75
2022-10-02T17:22:01.142Z,97905.03
2022-10-02T17:24:36.480Z,97915.78
2022-10-02T17:27:15.207Z,97919.13
2022-10-02T17:29:54.141Z,97913.09
2022-10-02T17:32:39.082Z,97909.41
2022-10-02T17:35:16.283Z,97909.22
2022-10-02T17:38:10.685Z,97906.50
2022-10-02T17:40:40.918Z,97911.91
2022-10-02T17:43:15.914Z,97918.50
2022-10-02T17:45:48.865Z,97903.19
2022-10-02T17:48:28.924Z,97913.75
2022-10-02T17:51:31.285Z,97896.41
2022-10-02T17:54:38.541Z,97893.91
2022-10-02T17:57:25.335Z,97900.97
2022-10-02T18:00:12.004Z,97901.78
2022-10-02T18:03:36.860Z,97903.81
2022-10-02T18:06:12.914Z,97900.13
2022-10-02T18:09:11.341Z,97900.97
2022-10-02T18:12:03.995Z,97903.66
2022-10-02T18:15:02.992Z,97938.63
2022-10-02T18:17:41.606Z,97955.56
2022-10-02T18:20:18.170Z,97970.88
2022-10-02T18:23:02.556Z,97972.75
2022-10-02T18:25:39.726Z,97956.78
2022-10-02T18:28:32.784Z,97961.13
2022-10-02T18:31:13.139Z,97953.91
2022-10-02T18:34:14.274Z,97964.69
2022-10-02T18:37:00.174Z,97961.78
2022-10-02T18:39:40.666Z,97955.56
2022-10-02T18:42:41.134Z,97964.47
2022-10-02T18:45:27.212Z,97966.34
2022-10-02T18:48:22.521Z,97965.13
2022-10-02T18:51:16.740Z,97960.78
2022-10-02T18:54:03.463Z,97966.34
2022-10-02T18:56:58.026Z,97966.34
2022-10-02T18:59:38.163Z,97965.94
2022-10-02T19:02:21.801Z,97968.63
2022-10-02T19:05:04.782Z,97977.91
2022-10-02T19:07:39.658Z,97977.91
2022-10-02T19:10:40.433Z,97978.94
2022-10-02T19:13:18.401Z,97977.91
2022-10-02T19:15:49.510Z,97982.47
2022-10-02T19:18:20.727Z,97984.97
2022-10-02T19:20:59.555Z,97984.97
2022-10-02T19:23:32.110Z,97982.47
2022-10-02T19:26:04.857Z,97994.06
2022-10-02T19:28:33.736Z,97986.38
2022-10-02T19:31:05.465Z,97981.81
2022-10-02T19:33:46.915Z,97983.28
2022-10-02T19:36:19.134Z,97986.63
2022-10-02T19:38:53.535Z,97988.66
2022-10-02T19:41:22.828Z,97989.50
2022-10-02T19:43:56.528Z,97987.03
2022-10-02T19:46:37.275Z,97991.56
2022-10-02T19:49:05.809Z,97991.56
2022-10-02T19:51:44.196Z,97993.22
2022-10-02T19:54:17.027Z,97991.56
2022-10-02T19:56:46.576Z,97991.34
2022-10-02T19:59:18.428Z,97990.97
2022-10-02T20:01:51.352Z,97995.53
2022-10-02T20:04:21.961Z,97996.56
2022-10-02T20:06:53.554Z,97990.34
2022-10-02T20:09:27.039Z,98000.25
2022-10-02T20:11:58.811Z,97998.59
2022-10-02T20:14:30.008Z,98004.81
2022-10-02T20:17:10.845Z,98007.69
2022-10-02T20:19:43.476Z,98012.06
2022-10-02T20:22:24.992Z,98011.22
2022-10-02T20:24:57.883Z,98013.09
2022-10-02T20:27:34.998Z,98025.50
2022-10-02T20:30:07.243Z,98022.97
2022-10-02T20:32:39.773Z,98023.84
2022-10-02T20:35:14.670Z,98032.72
2022-10-02T20:37:43.121Z,98028.34
2022-10-02T20:40:15.895Z,98029.22
2022-10-02T20:42:50.211Z,98024.66
2022-10-02T20:45:18.786Z,98026.69
2022-10-02T20:49:06.438Z,98026.53
2022-10-02T20:51:50.513Z,98025.66
2022-10-02T20:54:40.426Z,98029.22
2022-10-02T20:58:00.054Z,98029.22
2022-10-02T21:00:30.852Z,98033.75
2022-10-02T21:03:37.684Z,98027.53
2022-10-02T21:07:05.844Z,98032.91
2022-10-02T21:10:09.997Z,98019.47
2022-10-02T21:13:33.517Z,98030.22
2022-10-02T21:16:36.291Z,98018.63
2022-10-02T21:19:36.660Z,98036.44
2022-10-02T21:22:33.244Z,98025.66
2022-10-02T21:25:39.127Z,98027.34
2022-10-02T21:28:41.880Z,98033.75
2022-10-02T21:31:36.438Z,98033.13
2022-10-02T21:34:16.282Z,98032.91
2022-10-02T21:36:48.906Z,98032.09
2022-10-02T21:40:01.673Z,98039.97
2022-10-02T21:43:35.390Z,98035.22
2022-10-02T21:46:44.564Z,98045.34
2022-10-02T21:50:21.106Z,98039.13
2022-10-02T21:53:37.822Z,98050.06
2022-10-02T21:56:54.704Z,98043.88
2022-10-02T22:00:13.796Z,98045.69
2022-10-02T22:03:23.451Z,98053.78
2022-10-02T22:06:26.881Z,98047.56
2022-10-02T22:09:27.634Z,98044.03
2022-10-02T22:12:12.662Z,98058.31
2022-10-02T22:14:43.175Z,98052.94
2022-10-02T22:17:19.506Z,98062.03
2022-10-02T22:20:21.359Z,98057.69
2022-10-02T22:23:08.627Z,98061.22
2022-10-02T22:25:48.482Z,98057.69
2022-10-02T22:28:25.071Z,98047.94
2022-10-02T22:31:15.259Z,98056.00
2022-10-02T22:33:54.275Z,98047.94
2022-10-02T22:37:05.404Z,98047.94
2022-10-02T22:39:38.124Z,98055.19
2022-10-02T22:42:10.917Z,98056.00
2022-10-02T22:44:43.060Z,98061.38
2022-10-02T22:47:13.602Z,98061.38
2022-10-02T22:49:44.445Z,98067.59
2022-10-02T22:52:18.250Z,98069.44
2022-10-02T22:54:50.143Z,98070.28
2022-10-02T22:57:22.507Z,98076.69
2022-10-02T22:59:54.650Z,98073.84
2022-10-02T23:02:29.735Z,98081.03
2022-10-02T23:05:05.611Z,98072.16
2022-10-02T23:07:40.594Z,98082.91
2022-10-02T23:10:20.906Z,98077.72
2022-10-02T23:12:58.175Z,98087.44
2022-10-02T23:15:32.945Z,98083.56
2022-10-02T23:18:03.459Z,98095.13
2022-10-02T23:20:35.162Z,98092.44
2022-10-02T23:23:08.102Z,98081.69
2022-10-02T23:25:44.302Z,98088.72
2022-10-02T23:28:17.962Z,98092.44
2022-10-02T23:30:49.379Z,98095.34
2022-10-02T23:33:26.021Z,98096.16
2022-10-02T23:35:57.546Z,98096.16
2022-10-02T23:38:29.621Z,98098.03
2022-10-02T23:41:23.865Z,98104.41
2022-10-02T23:44:00.819Z,98106.28
2022-10-02T23:46:33.469Z,98109.78
2022-10-02T23:49:01.881Z,98098.19
2022-10-02T23:51:40.287Z,98097.38
2022-10-02T23:54:34.296Z,98100.91
2022-10-02T23:57:21.715Z,98102.75
